Flight Track Log - Related Links

Times and Time Zones

All times are in EDT time to prevent confusion due to time zone crossing. See the PHM15A flight status page for this flight to view local times or setup timezone preferences in your user account.

Time Position Orientation Groundspeed Altitude Reporting Facility
EDT Latitude Longitude Course Direction KTS MPH feet Rate Location/Type
Tue 03:29:09 PM 27.2561 -91.0506 25° Northeast 133 153 5,000  Level Houston Center
Tue 03:30:11 PM 27.2967 -91.0528 357° North 146 168 5,000  Level Houston Center
Tue 03:31:12 PM 27.3375 -91.0539 359° North 149 171 5,000  Level Houston Center
Tue 03:32:14 PM 27.3864 -91.0550 359° North 148 170 5,000  Level Houston Center
Tue 03:33:16 PM 27.4278 -91.0558 359° North 147 169 5,000  Level Houston Center
Tue 03:34:18 PM 27.4678 -91.0564 359° North 145 167 5,000  Level Houston Center
Tue 03:35:20 PM 27.5075 -91.0572 359° North 142 163 5,000  Level Houston Center
Tue 03:36:21 PM 27.5478 -91.0581 359° North 148 170 5,000  Level Houston Center
Tue 03:37:23 PM 27.5881 -91.0589 359° North 144 166 5,000  Level Houston Center
Tue 03:38:25 PM 27.6364 -91.0597 359° North 145 167 5,000  Level Houston Center
Tue 03:39:27 PM 27.6764 -91.0606 359° North 143 165 5,000  Level Houston Center
Tue 03:40:29 PM 27.7172 -91.0614 359° North 144 166 5,000  Level Houston Center
Tue 03:41:31 PM 27.7572 -91.0622 359° North 145 167 5,000  Level Houston Center
Tue 03:42:33 PM 27.7978 -91.0628 359° North 144 166 5,000  Level Houston Center
Tue 03:43:34 PM 27.8383 -91.0636 359° North 145 167 5,000  Level Houston Center
Tue 03:44:36 PM 27.8794 -91.0644 359° North 149 171 5,000  Level Houston Center
Tue 03:45:38 PM 27.9281 -91.0656 359° North 145 167 5,000  Level Houston Center
Tue 03:46:40 PM 27.9689 -91.0664 359° North 146 168 5,000  Level Houston Center
Tue 03:47:42 PM 28.0094 -91.0672 359° North 147 169 5,000  Level Houston Center
Tue 03:48:44 PM 28.0506 -91.0678 359° North 147 169 5,000  Level Houston Center
Tue 03:49:46 PM 28.0919 -91.0689 359° North 148 170 5,000  Level Houston Center
Tue 03:50:48 PM 28.1336 -91.0694 359° North 149 171 5,000  Level Houston Center
Tue 03:51:50 PM 28.1836 -91.0706 359° North 148 170 5,000  Level Houston Center
Tue 03:52:52 PM 28.2256 -91.0714 359° North 154 177 5,000  Level Houston Center
Tue 03:53:54 PM 28.2692 -91.0722 359° North 157 181 5,000  Level Houston Center
Tue 03:54:55 PM 28.3117 -91.0731 359° North 153 176 5,000  Level Houston Center
Tue 03:55:57 PM 28.3544 -91.0739 359° North 154 177 5,000  Level Houston Center
Tue 03:56:59 PM 28.3975 -91.0747 359° North 156 180 5,000  Level Houston Center
Tue 03:58:01 PM 28.4489 -91.0758 359° North 156 180 5,000  Level Houston Center
Tue 03:59:03 PM 28.4917 -91.0767 359° North 153 176 5,000  Level Houston Center
Tue 04:00:05 PM 28.5350 -91.0775 359° North 155 178 5,000  Level Houston Center
Tue 04:01:07 PM 28.5783 -91.0783 359° North 156 180 5,000  Level Houston Center
Tue 04:02:09 PM 28.6214 -91.0792 359° North 156 180 5,000  Level Houston Center
Tue 04:03:11 PM 28.6644 -91.0800 359° North 155 178 5,000  Level Houston Center
Tue 04:04:13 PM 28.7083 -91.0811 359° North 156 180 5,000  Level Houston Center
Tue 04:05:15 PM 28.7600 -91.0819 359° North 155 178 5,000  Level Houston Center
Tue 04:06:17 PM 28.8031 -91.0828 359° North 156 180 5,000  Level Houston Center
Tue 04:07:18 PM 28.8467 -91.0836 359° North 156 180 5,000  Level Houston Center
Tue 04:08:20 PM 28.8906 -91.0847 359° North 157 181 5,000  Level Houston Center
Tue 04:09:22 PM 28.9333 -91.0856 359° North 155 178 5,000  Level Houston Center
Tue 04:10:24 PM 28.9772 -91.0864 359° North 153 176 5,000  Level Houston Center
Tue 04:11:26 PM 29.0286 -91.0875 359° North 154 177 5,000  Level Houston Center
Tue 04:12:28 PM 29.0714 -91.0883 359° North 155 178 5,000  Level Houston Center
Tue 04:13:29 PM 29.1158 -91.0892 359° North 160 184 5,000  Level Houston Center
Tue 04:14:31 PM 29.1592 -91.0900 359° North 154 177 5,000  Level Houston Center
Tue 04:15:07 PM 29.1883 -91.0925 356° North 156 180 5,000 91 Level Houston Center
Tue 04:15:37 PM 29.2092 -91.0919 North 155 178 5,100  Climbing Houston Center
Tue 04:16:35 PM 29.2453 -91.0917 360° North 154 177 5,000 -50 Descending Houston Center
Tue 04:17:37 PM 29.2883 -91.0928 359° North 153 176 5,000  Level Houston Center
Tue 04:18:39 PM 29.3400 -91.0936 359° North 154 177 5,000  Level Houston Center

Login

Don't have an account? Register now (free) for customized features, flight alerts, and more!